sensor_id;sensor_type;location;lat;lon;timestamp;pressure;altitude;pressure_sealevel;temperature;humidity
59987;BME280;46181;51.498;5.392;2024-01-27T00:02:02;103417;;;7.1;61.39063
59987;BME280;46181;51.498;5.392;2024-01-27T00:06:32;103408.3;;;7.04;61.37109
59987;BME280;46181;51.498;5.392;2024-01-27T00:11:02;103409.3;;;7;61.42188
59987;BME280;46181;51.498;5.392;2024-01-27T00:15:32;103398.4;;;6.97;61.51758
59987;BME280;46181;51.498;5.392;2024-01-27T00:20:02;103392.9;;;6.94;61.49219
59987;BME280;46181;51.498;5.392;2024-01-27T00:24:32;103389.8;;;6.92;61.63281
59987;BME280;46181;51.498;5.392;2024-01-27T00:29:02;103392.3;;;6.92;61.7002
59987;BME280;46181;51.498;5.392;2024-01-27T00:33:32;103395.6;;;6.9;61.77637
59987;BME280;46181;51.498;5.392;2024-01-27T00:38:02;103412.8;;;6.9;61.70801
59987;BME280;46181;51.498;5.392;2024-01-27T00:42:32;103412.7;;;6.85;61.63477
59987;BME280;46181;51.498;5.392;2024-01-27T00:47:02;103414.4;;;6.81;61.57324
59987;BME280;46181;51.498;5.392;2024-01-27T00:51:32;103418.3;;;6.77;61.66797
59987;BME280;46181;51.498;5.392;2024-01-27T00:56:02;103415.4;;;6.73;61.63965
59987;BME280;46181;51.498;5.392;2024-01-27T01:00:32;103414.8;;;6.7;61.625
59987;BME280;46181;51.498;5.392;2024-01-27T01:05:02;103414.6;;;6.68;61.66504
59987;BME280;46181;51.498;5.392;2024-01-27T01:09:32;103415.4;;;6.65;61.67285
59987;BME280;46181;51.498;5.392;2024-01-27T01:14:02;103431.1;;;6.62;61.63672
59987;BME280;46181;51.498;5.392;2024-01-27T01:18:32;103422.3;;;6.59;61.8877
59987;BME280;46181;51.498;5.392;2024-01-27T01:23:02;103422.2;;;6.56;61.69336
59987;BME280;46181;51.498;5.392;2024-01-27T01:27:32;103424;;;6.54;61.74609
59987;BME280;46181;51.498;5.392;2024-01-27T01:32:02;103417.3;;;6.51;61.81934
59987;BME280;46181;51.498;5.392;2024-01-27T01:36:32;103423.2;;;6.48;61.81641
59987;BME280;46181;51.498;5.392;2024-01-27T01:41:02;103418.2;;;6.45;61.79004
59987;BME280;46181;51.498;5.392;2024-01-27T01:45:32;103424.7;;;6.44;61.83398
59987;BME280;46181;51.498;5.392;2024-01-27T01:50:03;103421.4;;;6.42;61.86328
59987;BME280;46181;51.498;5.392;2024-01-27T01:54:32;103428;;;6.4;61.88184
59987;BME280;46181;51.498;5.392;2024-01-27T01:59:02;103431.1;;;6.38;61.87891
59987;BME280;46181;51.498;5.392;2024-01-27T02:03:32;103427.6;;;6.36;61.94336
59987;BME280;46181;51.498;5.392;2024-01-27T02:08:02;103426.6;;;6.35;61.95313
59987;BME280;46181;51.498;5.392;2024-01-27T02:12:32;103428.2;;;6.35;61.97559
59987;BME280;46181;51.498;5.392;2024-01-27T02:17:02;103429.4;;;6.35;62.10938
59987;BME280;46181;51.498;5.392;2024-01-27T02:21:32;103428.3;;;6.36;62.14453
59987;BME280;46181;51.498;5.392;2024-01-27T02:26:02;103439.6;;;6.37;62.15625
59987;BME280;46181;51.498;5.392;2024-01-27T02:30:32;103437.6;;;6.36;62.16699
59987;BME280;46181;51.498;5.392;2024-01-27T02:35:02;103436.5;;;6.35;62.15332
59987;BME280;46181;51.498;5.392;2024-01-27T02:39:32;103434.5;;;6.34;62.21875
59987;BME280;46181;51.498;5.392;2024-01-27T02:44:02;103437.1;;;6.32;62.19238
59987;BME280;46181;51.498;5.392;2024-01-27T02:48:32;103432;;;6.32;62.22656
59987;BME280;46181;51.498;5.392;2024-01-27T02:53:02;103439.9;;;6.31;62.22461
59987;BME280;46181;51.498;5.392;2024-01-27T02:57:32;103433;;;6.29;62.21094
59987;BME280;46181;51.498;5.392;2024-01-27T03:02:02;103439.5;;;6.27;62.20898
59987;BME280;46181;51.498;5.392;2024-01-27T03:06:32;103435.4;;;6.24;62.1377
59987;BME280;46181;51.498;5.392;2024-01-27T03:11:02;103431.9;;;6.19;62.09668
59987;BME280;46181;51.498;5.392;2024-01-27T03:15:32;103437.9;;;6.16;62.10352
59987;BME280;46181;51.498;5.392;2024-01-27T03:20:02;103437.1;;;6.12;62.0752
59987;BME280;46181;51.498;5.392;2024-01-27T03:24:32;103441.5;;;6.09;62.06055
59987;BME280;46181;51.498;5.392;2024-01-27T03:29:02;103445.3;;;6.05;62.0332
59987;BME280;46181;51.498;5.392;2024-01-27T03:33:32;103439;;;6.02;62.06055
59987;BME280;46181;51.498;5.392;2024-01-27T03:38:02;103451.7;;;5.99;62.0127
59987;BME280;46181;51.498;5.392;2024-01-27T03:42:32;103448.5;;;5.97;62.04199
59987;BME280;46181;51.498;5.392;2024-01-27T03:47:02;103454.1;;;5.92;62.03711
59987;BME280;46181;51.498;5.392;2024-01-27T03:51:32;103445;;;5.9;62.02344
59987;BME280;46181;51.498;5.392;2024-01-27T03:56:02;103446.4;;;5.88;62.08594
59987;BME280;46181;51.498;5.392;2024-01-27T04:00:32;103440.7;;;5.85;62.05957
59987;BME280;46181;51.498;5.392;2024-01-27T04:05:02;103451.2;;;5.85;62.09375
59987;BME280;46181;51.498;5.392;2024-01-27T04:09:32;103452.6;;;5.82;62.15527
59987;BME280;46181;51.498;5.392;2024-01-27T04:14:02;103452.5;;;5.8;62.11914
59987;BME280;46181;51.498;5.392;2024-01-27T04:18:32;103453.3;;;5.78;62.11621
59987;BME280;46181;51.498;5.392;2024-01-27T04:23:02;103464.9;;;5.75;62.08887
59987;BME280;46181;51.498;5.392;2024-01-27T04:27:36;103455.9;;;5.72;62.0752
59987;BME280;46181;51.498;5.392;2024-01-27T04:32:02;103454;;;5.69;62.00293
59987;BME280;46181;51.498;5.392;2024-01-27T04:36:39;103451.7;;;5.61;62.11523
59987;BME280;46181;51.498;5.392;2024-01-27T04:41:02;103455;;;5.61;62.02637
59987;BME280;46181;51.498;5.392;2024-01-27T04:45:32;103459.8;;;5.58;62.03125
59987;BME280;46181;51.498;5.392;2024-01-27T04:50:02;103467.9;;;5.56;62.07227
59987;BME280;46181;51.498;5.392;2024-01-27T04:54:32;103458.7;;;5.56;62.16211
59987;BME280;46181;51.498;5.392;2024-01-27T04:59:02;103456.7;;;5.56;62.27246
59987;BME280;46181;51.498;5.392;2024-01-27T05:03:32;103458.5;;;5.57;62.23145
59987;BME280;46181;51.498;5.392;2024-01-27T05:08:02;103454.9;;;5.54;62.22559
59987;BME280;46181;51.498;5.392;2024-01-27T05:12:32;103458.5;;;5.52;62.17871
59987;BME280;46181;51.498;5.392;2024-01-27T05:17:02;103457.8;;;5.48;62.14063
59987;BME280;46181;51.498;5.392;2024-01-27T05:21:32;103464.1;;;5.47;62.1377
59987;BME280;46181;51.498;5.392;2024-01-27T05:26:02;103465.2;;;5.46;62.19141
59987;BME280;46181;51.498;5.392;2024-01-27T05:30:32;103458;;;5.44;62.16699
59987;BME280;46181;51.498;5.392;2024-01-27T05:35:02;103456.1;;;5.43;62.1875
59987;BME280;46181;51.498;5.392;2024-01-27T05:39:32;103453.2;;;5.4;62.16211
59987;BME280;46181;51.498;5.392;2024-01-27T05:44:02;103445.2;;;5.36;61.98828
59987;BME280;46181;51.498;5.392;2024-01-27T05:48:32;103438;;;5.31;62.01563
59987;BME280;46181;51.498;5.392;2024-01-27T05:53:02;103434.2;;;5.28;61.98828
59987;BME280;46181;51.498;5.392;2024-01-27T05:57:32;103435.8;;;5.26;62.05371
59987;BME280;46181;51.498;5.392;2024-01-27T06:02:02;103442.5;;;5.23;62.07031
59987;BME280;46181;51.498;5.392;2024-01-27T06:06:32;103447.4;;;5.24;62.16113
59987;BME280;46181;51.498;5.392;2024-01-27T06:11:02;103437.6;;;5.23;62.18164
59987;BME280;46181;51.498;5.392;2024-01-27T06:15:32;103435.5;;;5.22;62.20117
59987;BME280;46181;51.498;5.392;2024-01-27T06:20:02;103430.9;;;5.25;62.38379
59987;BME280;46181;51.498;5.392;2024-01-27T06:24:32;103434.9;;;5.26;62.35352
59987;BME280;46181;51.498;5.392;2024-01-27T06:29:02;103442;;;5.26;62.34082
59987;BME280;46181;51.498;5.392;2024-01-27T06:33:32;103446.3;;;5.25;62.33984
59987;BME280;46181;51.498;5.392;2024-01-27T06:38:02;103434.1;;;5.22;62.3125
59987;BME280;46181;51.498;5.392;2024-01-27T06:42:32;103447.5;;;5.21;62.36621
59987;BME280;46181;51.498;5.392;2024-01-27T06:47:02;103451.9;;;5.21;62.50098
59987;BME280;46181;51.498;5.392;2024-01-27T06:51:32;103459;;;5.22;62.45801
59987;BME280;46181;51.498;5.392;2024-01-27T06:56:02;103462.5;;;5.21;62.50098
59987;BME280;46181;51.498;5.392;2024-01-27T07:00:32;103475.4;;;5.2;62.52148
59987;BME280;46181;51.498;5.392;2024-01-27T07:05:03;103486.7;;;5.22;62.47852
59987;BME280;46181;51.498;5.392;2024-01-27T07:09:32;103486.5;;;5.22;62.55762
59987;BME280;46181;51.498;5.392;2024-01-27T07:14:02;103492.3;;;5.22;62.64648
59987;BME280;46181;51.498;5.392;2024-01-27T07:18:32;103484.1;;;5.27;62.70898
59987;BME280;46181;51.498;5.392;2024-01-27T07:23:02;103489.9;;;5.28;62.7207
59987;BME280;46181;51.498;5.392;2024-01-27T07:27:32;103494.4;;;5.29;62.7666
59987;BME280;46181;51.498;5.392;2024-01-27T07:32:03;103500.7;;;5.29;62.72266
59987;BME280;46181;51.498;5.392;2024-01-27T07:36:32;103497.6;;;5.29;62.68945
59987;BME280;46181;51.498;5.392;2024-01-27T07:41:02;103495.6;;;5.29;62.71094
59987;BME280;46181;51.498;5.392;2024-01-27T07:45:32;103495.7;;;5.3;62.72363
59987;BME280;46181;51.498;5.392;2024-01-27T07:50:03;103499.7;;;5.32;62.72656
59987;BME280;46181;51.498;5.392;2024-01-27T07:54:32;103511.8;;;5.35;62.80957
59987;BME280;46181;51.498;5.392;2024-01-27T07:59:02;103506.8;;;5.36;62.91016
59987;BME280;46181;51.498;5.392;2024-01-27T08:03:32;103506.5;;;5.41;62.91895
59987;BME280;46181;51.498;5.392;2024-01-27T08:08:03;103507.1;;;5.47;62.92676
59987;BME280;46181;51.498;5.392;2024-01-27T08:12:32;103492.2;;;5.56;62.99512
59987;BME280;46181;51.498;5.392;2024-01-27T08:17:02;103489.3;;;5.62;63.00391
59987;BME280;46181;51.498;5.392;2024-01-27T08:21:32;103498.1;;;5.72;63.0752
59987;BME280;46181;51.498;5.392;2024-01-27T08:26:03;103491.2;;;5.83;63.0791
59987;BME280;46181;51.498;5.392;2024-01-27T08:30:32;103489;;;5.94;63.06152
59987;BME280;46181;51.498;5.392;2024-01-27T08:35:02;103484;;;6.05;63.01172
59987;BME280;46181;51.498;5.392;2024-01-27T08:39:32;103491.3;;;6.16;62.97168
59987;BME280;46181;51.498;5.392;2024-01-27T08:44:02;103501.2;;;6.28;62.93457
59987;BME280;46181;51.498;5.392;2024-01-27T08:48:32;103500;;;6.39;62.87207
59987;BME280;46181;51.498;5.392;2024-01-27T08:53:02;103499.7;;;6.51;62.86621
59987;BME280;46181;51.498;5.392;2024-01-27T08:57:32;103508.6;;;6.63;62.87305
59987;BME280;46181;51.498;5.392;2024-01-27T09:02:03;103510.2;;;6.73;62.8877
59987;BME280;46181;51.498;5.392;2024-01-27T09:06:32;103518.2;;;6.85;62.92773
59987;BME280;46181;51.498;5.392;2024-01-27T09:11:03;103517.2;;;6.99;62.95898
59987;BME280;46181;51.498;5.392;2024-01-27T09:15:32;103512.5;;;7.1;62.97559
59987;BME280;46181;51.498;5.392;2024-01-27T09:20:03;103521.9;;;7.21;62.93555
59987;BME280;46181;51.498;5.392;2024-01-27T09:24:32;103526.7;;;7.31;62.92773
59987;BME280;46181;51.498;5.392;2024-01-27T09:29:02;103528;;;7.44;62.96875
59987;BME280;46181;51.498;5.392;2024-01-27T09:33:32;103533.5;;;7.54;62.89355
59987;BME280;46181;51.498;5.392;2024-01-27T09:38:02;103543.6;;;7.63;62.85059
59987;BME280;46181;51.498;5.392;2024-01-27T09:42:33;103551.9;;;7.72;62.8418
59987;BME280;46181;51.498;5.392;2024-01-27T09:47:03;103549.9;;;7.79;62.81836
59987;BME280;46181;51.498;5.392;2024-01-27T09:51:33;103555.2;;;7.89;62.77734
59987;BME280;46181;51.498;5.392;2024-01-27T09:56:03;103560.7;;;8.01;62.66016
59987;BME280;46181;51.498;5.392;2024-01-27T10:00:33;103563.1;;;8.09;62.62793
59987;BME280;46181;51.498;5.392;2024-01-27T10:05:03;103574.2;;;8.22;62.58887
59987;BME280;46181;51.498;5.392;2024-01-27T10:09:32;103569.5;;;8.33;62.53906
59987;BME280;46181;51.498;5.392;2024-01-27T10:14:07;103574.1;;;8.39;62.50293
59987;BME280;46181;51.498;5.392;2024-01-27T10:18:32;103575.9;;;8.51;62.36328
59987;BME280;46181;51.498;5.392;2024-01-27T10:23:09;103581.5;;;8.61;62.37891
59987;BME280;46181;51.498;5.392;2024-01-27T10:27:32;103581.5;;;8.73;62.29395
59987;BME280;46181;51.498;5.392;2024-01-27T10:32:11;103572.7;;;8.85;62.27832
59987;BME280;46181;51.498;5.392;2024-01-27T10:36:42;103581.3;;;8.97;62.19336
59987;BME280;46181;51.498;5.392;2024-01-27T10:41:03;103581;;;9.1;62.11133
59987;BME280;46181;51.498;5.392;2024-01-27T10:45:34;103584.4;;;9.24;61.87402
59987;BME280;46181;51.498;5.392;2024-01-27T10:50:04;103575.4;;;9.35;61.87891
59987;BME280;46181;51.498;5.392;2024-01-27T10:54:34;103567.2;;;9.47;61.77246
59987;BME280;46181;51.498;5.392;2024-01-27T10:59:03;103564.7;;;9.58;61.65234
59987;BME280;46181;51.498;5.392;2024-01-27T11:03:32;103555.1;;;9.68;61.58887
59987;BME280;46181;51.498;5.392;2024-01-27T11:08:03;103550.6;;;9.77;61.5459
59987;BME280;46181;51.498;5.392;2024-01-27T11:12:33;103549.6;;;9.86;61.46875
59987;BME280;46181;51.498;5.392;2024-01-27T11:17:07;103543.5;;;9.94;61.35547
59987;BME280;46181;51.498;5.392;2024-01-27T11:21:32;103541;;;10.09;61.18555
59987;BME280;46181;51.498;5.392;2024-01-27T11:26:10;103546.8;;;10.11;61.17871
59987;BME280;46181;51.498;5.392;2024-01-27T11:30:39;103545.4;;;10.22;60.95801
59987;BME280;46181;51.498;5.392;2024-01-27T11:35:04;103541.4;;;10.33;60.70215
59987;BME280;46181;51.498;5.392;2024-01-27T11:39:37;103538.9;;;10.35;60.57031
59987;BME280;46181;51.498;5.392;2024-01-27T11:44:04;103533.7;;;10.42;60.27734
59987;BME280;46181;51.498;5.392;2024-01-27T11:48:32;103537.1;;;10.54;60.01172
59987;BME280;46181;51.498;5.392;2024-01-27T11:53:03;103517.4;;;10.58;59.74805
59987;BME280;46181;51.498;5.392;2024-01-27T11:57:32;103523.3;;;10.65;59.58887
59987;BME280;46181;51.498;5.392;2024-01-27T12:02:03;103517.5;;;10.71;59.36133
59987;BME280;46181;51.498;5.392;2024-01-27T12:06:33;103514.2;;;10.75;59.24219
59987;BME280;46181;51.498;5.392;2024-01-27T12:11:03;103515.2;;;10.81;59.04688
59987;BME280;46181;51.498;5.392;2024-01-27T12:15:32;103512.7;;;10.86;58.91895
59987;BME280;46181;51.498;5.392;2024-01-27T12:20:03;103514.5;;;10.94;58.37695
59987;BME280;46181;51.498;5.392;2024-01-27T12:24:33;103515.8;;;10.97;58.26953
59987;BME280;46181;51.498;5.392;2024-01-27T12:29:03;103513;;;11.01;58.26367
59987;BME280;46181;51.498;5.392;2024-01-27T12:33:32;103512.3;;;11.08;58.11426
59987;BME280;46181;51.498;5.392;2024-01-27T12:38:03;103505.5;;;11.12;57.96191
59987;BME280;46181;51.498;5.392;2024-01-27T12:42:33;103498.5;;;11.14;57.81836
59987;BME280;46181;51.498;5.392;2024-01-27T12:47:03;103494.7;;;11.19;57.63379
59987;BME280;46181;51.498;5.392;2024-01-27T12:51:32;103483.2;;;11.22;57.49121
59987;BME280;46181;51.498;5.392;2024-01-27T12:56:03;103476.5;;;11.25;57.44922
59987;BME280;46181;51.498;5.392;2024-01-27T13:00:32;103486.4;;;11.25;57.40527
59987;BME280;46181;51.498;5.392;2024-01-27T13:05:03;103487.2;;;11.26;57.39551
59987;BME280;46181;51.498;5.392;2024-01-27T13:09:33;103480.2;;;11.27;57.35059
59987;BME280;46181;51.498;5.392;2024-01-27T13:14:03;103474.6;;;11.26;57.32813
59987;BME280;46181;51.498;5.392;2024-01-27T13:18:33;103467.5;;;11.29;57.28613
59987;BME280;46181;51.498;5.392;2024-01-27T13:23:03;103458.2;;;11.32;57.17676
59987;BME280;46181;51.498;5.392;2024-01-27T13:27:32;103445.8;;;11.36;57.08105
59987;BME280;46181;51.498;5.392;2024-01-27T13:32:03;103447.7;;;11.4;56.74805
59987;BME280;46181;51.498;5.392;2024-01-27T13:36:33;103447;;;11.43;56.63672
59987;BME280;46181;51.498;5.392;2024-01-27T13:41:03;103449.3;;;11.43;56.41113
59987;BME280;46181;51.498;5.392;2024-01-27T13:45:33;103456.5;;;11.45;56.42578
59987;BME280;46181;51.498;5.392;2024-01-27T13:50:03;103451.4;;;11.47;56.08008
59987;BME280;46181;51.498;5.392;2024-01-27T13:54:33;103453.7;;;11.48;56.125
59987;BME280;46181;51.498;5.392;2024-01-27T13:59:03;103459.6;;;11.49;56.01465
59987;BME280;46181;51.498;5.392;2024-01-27T14:03:32;103457;;;11.48;55.77539
59987;BME280;46181;51.498;5.392;2024-01-27T14:08:03;103456.5;;;11.47;55.63965
59987;BME280;46181;51.498;5.392;2024-01-27T14:12:33;103449.9;;;11.5;55.38379
59987;BME280;46181;51.498;5.392;2024-01-27T14:17:03;103445.8;;;11.52;55.28418
59987;BME280;46181;51.498;5.392;2024-01-27T14:21:33;103453.1;;;11.52;55.20605
59987;BME280;46181;51.498;5.392;2024-01-27T14:26:03;103463.8;;;11.52;55.19336
59987;BME280;46181;51.498;5.392;2024-01-27T14:30:33;103456.5;;;11.5;55.06738
59987;BME280;46181;51.498;5.392;2024-01-27T14:35:03;103460;;;11.48;54.82813
59987;BME280;46181;51.498;5.392;2024-01-27T14:39:33;103449.4;;;11.44;54.74316
59987;BME280;46181;51.498;5.392;2024-01-27T14:44:03;103451.4;;;11.4;54.6709
59987;BME280;46181;51.498;5.392;2024-01-27T14:48:33;103454.6;;;11.38;54.64453
59987;BME280;46181;51.498;5.392;2024-01-27T14:53:03;103441.8;;;11.33;54.77539
59987;BME280;46181;51.498;5.392;2024-01-27T14:57:33;103446.9;;;11.32;54.69434
59987;BME280;46181;51.498;5.392;2024-01-27T15:02:03;103440.5;;;11.3;54.69141
59987;BME280;46181;51.498;5.392;2024-01-27T15:06:33;103440.3;;;11.27;54.71191
59987;BME280;46181;51.498;5.392;2024-01-27T15:11:03;103435.2;;;11.25;54.80957
59987;BME280;46181;51.498;5.392;2024-01-27T15:15:33;103435.1;;;11.21;54.89551
59987;BME280;46181;51.498;5.392;2024-01-27T15:20:03;103444.3;;;11.19;54.9834
59987;BME280;46181;51.498;5.392;2024-01-27T15:24:33;103448.9;;;11.19;55.00586
59987;BME280;46181;51.498;5.392;2024-01-27T15:29:03;103443.3;;;11.15;55.14551
59987;BME280;46181;51.498;5.392;2024-01-27T15:33:33;103442.5;;;11.12;55.22168
59987;BME280;46181;51.498;5.392;2024-01-27T15:38:03;103440.1;;;11.07;55.35059
59987;BME280;46181;51.498;5.392;2024-01-27T15:42:33;103440.4;;;10.98;55.45215
59987;BME280;46181;51.498;5.392;2024-01-27T15:47:03;103441.9;;;10.9;55.66895
59987;BME280;46181;51.498;5.392;2024-01-27T15:51:33;103442.7;;;10.81;55.81348
59987;BME280;46181;51.498;5.392;2024-01-27T15:56:03;103436.4;;;10.72;55.9375
59987;BME280;46181;51.498;5.392;2024-01-27T16:00:33;103432.7;;;10.6;56.06934
59987;BME280;46181;51.498;5.392;2024-01-27T16:05:03;103433.9;;;10.49;56.25879
59987;BME280;46181;51.498;5.392;2024-01-27T16:09:33;103430.8;;;10.39;56.37988
59987;BME280;46181;51.498;5.392;2024-01-27T16:14:03;103414.4;;;10.28;56.55664
59987;BME280;46181;51.498;5.392;2024-01-27T16:18:33;103414.7;;;10.16;56.73242
59987;BME280;46181;51.498;5.392;2024-01-27T16:23:03;103409.6;;;10.01;56.87109
59987;BME280;46181;51.498;5.392;2024-01-27T16:27:33;103411.2;;;9.88;57.0791
59987;BME280;46181;51.498;5.392;2024-01-27T16:32:03;103409.5;;;9.78;57.26758
59987;BME280;46181;51.498;5.392;2024-01-27T16:36:33;103412.2;;;9.67;57.42188
59987;BME280;46181;51.498;5.392;2024-01-27T16:41:03;103407.8;;;9.57;57.55469
59987;BME280;46181;51.498;5.392;2024-01-27T16:45:33;103408.2;;;9.5;57.6123
59987;BME280;46181;51.498;5.392;2024-01-27T16:50:03;103405.1;;;9.39;57.71094
59987;BME280;46181;51.498;5.392;2024-01-27T16:54:33;103416;;;9.33;57.84863
59987;BME280;46181;51.498;5.392;2024-01-27T16:59:03;103416.1;;;9.27;57.99707
59987;BME280;46181;51.498;5.392;2024-01-27T17:03:33;103413;;;9.22;58.2041
59987;BME280;46181;51.498;5.392;2024-01-27T17:08:03;103411.9;;;9.2;58.18945
59987;BME280;46181;51.498;5.392;2024-01-27T17:12:33;103412.3;;;9.19;58.25684
59987;BME280;46181;51.498;5.392;2024-01-27T17:17:03;103414.7;;;9.18;58.28809
59987;BME280;46181;51.498;5.392;2024-01-27T17:21:33;103414;;;9.18;58.32324
59987;BME280;46181;51.498;5.392;2024-01-27T17:26:03;103412.7;;;9.14;58.37305
59987;BME280;46181;51.498;5.392;2024-01-27T17:30:33;103414.5;;;9.12;58.3916
59987;BME280;46181;51.498;5.392;2024-01-27T17:35:03;103405.4;;;9.09;58.51172
59987;BME280;46181;51.498;5.392;2024-01-27T17:39:33;103411.1;;;9.06;58.48535
59987;BME280;46181;51.498;5.392;2024-01-27T17:44:03;103420;;;9.02;58.61426
59987;BME280;46181;51.498;5.392;2024-01-27T17:48:33;103418.4;;;9.01;58.69238
59987;BME280;46181;51.498;5.392;2024-01-27T17:53:03;103426.7;;;9;58.75879
59987;BME280;46181;51.498;5.392;2024-01-27T17:57:33;103438.8;;;9.01;58.79297
59987;BME280;46181;51.498;5.392;2024-01-27T18:02:03;103428.7;;;8.99;58.82324
59987;BME280;46181;51.498;5.392;2024-01-27T18:06:33;103431.6;;;8.98;58.89063
59987;BME280;46181;51.498;5.392;2024-01-27T18:11:03;103430.4;;;8.95;58.85254
59987;BME280;46181;51.498;5.392;2024-01-27T18:15:33;103421.1;;;8.9;58.87988
59987;BME280;46181;51.498;5.392;2024-01-27T18:20:03;103427.5;;;8.86;58.92969
59987;BME280;46181;51.498;5.392;2024-01-27T18:24:33;103430.4;;;8.82;59.01465
59987;BME280;46181;51.498;5.392;2024-01-27T18:29:03;103432;;;8.77;59.11914
59987;BME280;46181;51.498;5.392;2024-01-27T18:33:33;103432;;;8.72;59.11133
59987;BME280;46181;51.498;5.392;2024-01-27T18:38:03;103421.7;;;8.63;59.1123
59987;BME280;46181;51.498;5.392;2024-01-27T18:42:33;103421.5;;;8.56;59.17969
59987;BME280;46181;51.498;5.392;2024-01-27T18:47:03;103420.6;;;8.48;59.28027
59987;BME280;46181;51.498;5.392;2024-01-27T18:51:33;103417.7;;;8.39;59.3125
59987;BME280;46181;51.498;5.392;2024-01-27T18:56:03;103417.5;;;8.3;59.37988
59987;BME280;46181;51.498;5.392;2024-01-27T19:00:33;103419.6;;;8.26;59.46484
59987;BME280;46181;51.498;5.392;2024-01-27T19:05:03;103417.6;;;8.22;59.63672
59987;BME280;46181;51.498;5.392;2024-01-27T19:09:33;103409.6;;;8.2;59.71387
59987;BME280;46181;51.498;5.392;2024-01-27T19:14:03;103412.2;;;8.18;59.72168
59987;BME280;46181;51.498;5.392;2024-01-27T19:18:33;103406.9;;;8.15;59.75098
59987;BME280;46181;51.498;5.392;2024-01-27T19:23:03;103409.9;;;8.12;59.73535
59987;BME280;46181;51.498;5.392;2024-01-27T19:27:33;103408.1;;;8.09;59.75293
59987;BME280;46181;51.498;5.392;2024-01-27T19:32:03;103400.2;;;8.06;59.73828
59987;BME280;46181;51.498;5.392;2024-01-27T19:36:33;103396.5;;;8.01;59.61914
59987;BME280;46181;51.498;5.392;2024-01-27T19:41:03;103389.7;;;7.92;59.62988
59987;BME280;46181;51.498;5.392;2024-01-27T19:45:33;103397.2;;;7.87;59.70117
59987;BME280;46181;51.498;5.392;2024-01-27T19:50:03;103395.1;;;7.82;59.70605
59987;BME280;46181;51.498;5.392;2024-01-27T19:54:33;103394;;;7.77;59.67676
59987;BME280;46181;51.498;5.392;2024-01-27T19:59:03;103399.5;;;7.72;59.61328
59987;BME280;46181;51.498;5.392;2024-01-27T20:03:33;103381.9;;;7.64;59.56836
59987;BME280;46181;51.498;5.392;2024-01-27T20:08:03;103377.6;;;7.57;59.60449
59987;BME280;46181;51.498;5.392;2024-01-27T20:12:33;103384.5;;;7.52;59.6416
59987;BME280;46181;51.498;5.392;2024-01-27T20:17:03;103382.4;;;7.46;59.64551
59987;BME280;46181;51.498;5.392;2024-01-27T20:21:33;103386.1;;;7.45;59.73242
59987;BME280;46181;51.498;5.392;2024-01-27T20:26:03;103382.9;;;7.42;59.77344
59987;BME280;46181;51.498;5.392;2024-01-27T20:30:33;103368.7;;;7.41;59.76074
59987;BME280;46181;51.498;5.392;2024-01-27T20:35:03;103369.7;;;7.41;59.83887
59987;BME280;46181;51.498;5.392;2024-01-27T20:39:33;103364.5;;;7.4;59.90332
59987;BME280;46181;51.498;5.392;2024-01-27T20:44:03;103367.9;;;7.39;59.92578
59987;BME280;46181;51.498;5.392;2024-01-27T20:48:33;103364;;;7.38;59.96875
59987;BME280;46181;51.498;5.392;2024-01-27T20:53:03;103360.5;;;7.37;59.9668
59987;BME280;46181;51.498;5.392;2024-01-27T20:57:33;103354.2;;;7.34;59.96289
59987;BME280;46181;51.498;5.392;2024-01-27T21:02:03;103358.5;;;7.34;60.00781
59987;BME280;46181;51.498;5.392;2024-01-27T21:06:33;103352.6;;;7.32;59.98242
59987;BME280;46181;51.498;5.392;2024-01-27T21:11:03;103357.8;;;7.27;59.94336
59987;BME280;46181;51.498;5.392;2024-01-27T21:15:33;103352.5;;;7.21;59.92285
59987;BME280;46181;51.498;5.392;2024-01-27T21:20:03;103339.8;;;7.13;59.84473
59987;BME280;46181;51.498;5.392;2024-01-27T21:24:33;103343.2;;;7.08;59.84863
59987;BME280;46181;51.498;5.392;2024-01-27T21:29:03;103339.3;;;6.98;59.89063
59987;BME280;46181;51.498;5.392;2024-01-27T21:33:33;103334.7;;;6.93;59.90723
59987;BME280;46181;51.498;5.392;2024-01-27T21:38:03;103331.5;;;6.89;59.95605
59987;BME280;46181;51.498;5.392;2024-01-27T21:42:33;103336.5;;;6.87;60.13184
59987;BME280;46181;51.498;5.392;2024-01-27T21:47:03;103343;;;6.86;60.1748
59987;BME280;46181;51.498;5.392;2024-01-27T21:51:33;103340.7;;;6.85;60.08496
59987;BME280;46181;51.498;5.392;2024-01-27T21:56:03;103336.6;;;6.79;60.07617
59987;BME280;46181;51.498;5.392;2024-01-27T22:00:33;103332.4;;;6.74;60.125
59987;BME280;46181;51.498;5.392;2024-01-27T22:05:04;103323.1;;;6.69;60.12012
59987;BME280;46181;51.498;5.392;2024-01-27T22:09:33;103316.7;;;6.64;60.07715
59987;BME280;46181;51.498;5.392;2024-01-27T22:14:03;103320.7;;;6.59;60.04883
59987;BME280;46181;51.498;5.392;2024-01-27T22:18:33;103318.2;;;6.53;60.07227
59987;BME280;46181;51.498;5.392;2024-01-27T22:23:03;103319.8;;;6.51;60.19336
59987;BME280;46181;51.498;5.392;2024-01-27T22:27:34;103316.6;;;6.51;60.29395
59987;BME280;46181;51.498;5.392;2024-01-27T22:32:03;103302.4;;;6.5;60.29102
59987;BME280;46181;51.498;5.392;2024-01-27T22:36:33;103287.5;;;6.46;60.18652
59987;BME280;46181;51.498;5.392;2024-01-27T22:41:03;103292.9;;;6.42;60.125
59987;BME280;46181;51.498;5.392;2024-01-27T22:45:33;103293.3;;;6.36;60.11816
59987;BME280;46181;51.498;5.392;2024-01-27T22:50:03;103288.9;;;6.33;60.16895
59987;BME280;46181;51.498;5.392;2024-01-27T22:54:33;103278.4;;;6.29;60.04004
59987;BME280;46181;51.498;5.392;2024-01-27T22:59:03;103266;;;6.26;60.0918
59987;BME280;46181;51.498;5.392;2024-01-27T23:03:33;103258.3;;;6.24;60.22266
59987;BME280;46181;51.498;5.392;2024-01-27T23:08:03;103251.4;;;6.26;60.26953
59987;BME280;46181;51.498;5.392;2024-01-27T23:12:33;103247.1;;;6.24;60.2002
59987;BME280;46181;51.498;5.392;2024-01-27T23:17:03;103238.3;;;6.24;60.24512